Weather at Texas Health Resources Arlington Memorial Heliport

Public forecast

Using degrees Fahrenheit for public forecast. Weather courtesy of forecast.io.

Closest aviation weather report (METAR) to Texas Health Resources Arlington Memorial Heliport

Closest report is Grand Prairie Municipal Airport, 4.6 nm (8.6 km) SE.

2024/05/23 21:50 (retrieved 47 minutes ago)

KGPM 232150Z 20009G16KT 10SM SKC 28/17 A2979

Closest aviation forecast (TAF) to Texas Health Resources Arlington Memorial Heliport

Closest forecast is Arlington Municipal Airport, 5.2 nm (9.7 km) SSE.

2024/05/23 21:09 Ammendment (retrieved 1 hour ago)

TAF AMD KGKY 232106Z 2321/2418 18017KT P6SM SCT040 BKN250 FM232300 18015KT P6SM VCTS BKN050CB FM240200 15013KT P6SM SCT050 BKN100 FM240800 16014KT P6SM BKN019 FM241700 19015KT P6SM BKN035